Time;durP1;ratioP1;P1;durP2;ratioP2;P2;SDS_P1;SDS_P2;PMS_P1;PMS_P2;Temp;Humidity;BMP_temperature;BMP_pressure;BME280_temperature;BME280_humidity;BME280_pressure;Samples;Min_cycle;Max_cycle;Signal;HPM_P1;HPM_P2
2021/07/30 00:01:34;;;;;;;0.00;0.00;;;;;;;;;;5063631;28;20051;-68
2021/07/30 00:04:00;;;;;;;0.00;0.00;;;;;;;;;;5054583;28;20017;-68
2021/07/30 00:06:25;;;;;;;0.00;0.00;;;;;;;;;;5061240;28;20020;-68
2021/07/30 00:08:50;;;;;;;0.00;0.00;;;;;;;;;;5060192;28;20059;-68
2021/07/30 00:11:15;;;;;;;0.00;0.00;;;;;;;;;;5062886;28;20053;-68
2021/07/30 00:13:40;;;;;;;0.00;0.00;;;;;;;;;;5065601;28;20338;-68
2021/07/30 00:16:05;;;;;;;0.10;0.10;;;;;;;;;;5061623;28;20360;-68
2021/07/30 00:18:31;;;;;;;0.00;0.00;;;;;;;;;;5066106;28;20268;-68
2021/07/30 00:20:56;;;;;;;0.00;0.00;;;;;;;;;;5062531;28;20426;-68
2021/07/30 00:23:21;;;;;;;0.00;0.00;;;;;;;;;;5062056;28;20381;-68
2021/07/30 00:25:46;;;;;;;0.00;0.00;;;;;;;;;;5061276;28;20274;-68
2021/07/30 00:28:11;;;;;;;0.07;0.07;;;;;;;;;;5057473;28;20267;-68
2021/07/30 00:30:36;;;;;;;0.00;0.00;;;;;;;;;;5068564;28;20267;-68
2021/07/30 00:33:02;;;;;;;0.10;0.10;;;;;;;;;;5061286;28;20117;-68
2021/07/30 00:35:27;;;;;;;0.00;0.00;;;;;;;;;;5048099;28;20029;-68
2021/07/30 00:37:52;;;;;;;0.00;0.00;;;;;;;;;;5058689;28;20028;-68
2021/07/30 00:40:17;;;;;;;0.10;0.10;;;;;;;;;;5050574;28;20336;-69
2021/07/30 00:42:46;;;;;;;0.00;0.00;;;;;;;;;;5062581;28;20012;-69
2021/07/30 00:45:12;;;;;;;0.00;0.00;;;;;;;;;;5039352;28;20267;-69
2021/07/30 00:47:37;;;;;;;0.10;0.10;;;;;;;;;;5060818;28;20043;-66
2021/07/30 00:50:02;;;;;;;0.07;0.07;;;;;;;;;;5044645;28;20305;-66
2021/07/30 00:52:27;;;;;;;0.00;0.00;;;;;;;;;;5036418;28;20055;-66
2021/07/30 00:54:53;;;;;;;0.00;0.00;;;;;;;;;;5034215;28;20103;-66
2021/07/30 00:57:18;;;;;;;0.10;0.10;;;;;;;;;;5066919;28;20016;-67
2021/07/30 00:59:44;;;;;;;0.00;0.00;;;;;;;;;;5039735;28;20134;-65
2021/07/30 01:02:09;;;;;;;0.03;0.03;;;;;;;;;;5059883;28;20058;-66
2021/07/30 01:04:34;;;;;;;0.00;0.00;;;;;;;;;;5066110;28;20107;-65
2021/07/30 01:07:01;;;;;;;0.00;0.00;;;;;;;;;;5063763;28;20023;-65
2021/07/30 01:09:26;;;;;;;0.10;0.10;;;;;;;;;;5072018;28;20290;-65
2021/07/30 01:11:51;;;;;;;0.00;0.00;;;;;;;;;;5070390;28;20056;-65
2021/07/30 01:14:16;;;;;;;0.00;0.00;;;;;;;;;;5053802;28;20270;-67
2021/07/30 01:16:42;;;;;;;0.00;0.00;;;;;;;;;;5038492;28;20275;-65
2021/07/30 01:19:10;;;;;;;0.03;0.03;;;;;;;;;;5064460;28;20012;-65
2021/07/30 01:21:35;;;;;;;0.00;0.00;;;;;;;;;;5054361;28;20025;-68
2021/07/30 01:24:00;;;;;;;0.10;0.10;;;;;;;;;;5059980;28;20473;-66
2021/07/30 01:26:26;;;;;;;0.00;0.00;;;;;;;;;;5044863;28;20032;-66
2021/07/30 01:28:51;;;;;;;0.00;0.00;;;;;;;;;;5052859;28;20021;-65
2021/07/30 01:31:16;;;;;;;0.10;0.10;;;;;;;;;;5051952;28;20025;-65
2021/07/30 01:33:41;;;;;;;0.10;0.10;;;;;;;;;;5051962;28;20878;-66
2021/07/30 01:36:07;;;;;;;0.00;0.00;;;;;;;;;;5049649;28;20393;-67
2021/07/30 01:38:32;;;;;;;0.00;0.00;;;;;;;;;;5044589;28;20769;-65
2021/07/30 01:41:09;;;;;;;0.00;0.00;;;;;;;;;;5049217;28;20422;-66
2021/07/30 01:43:38;;;;;;;0.10;0.10;;;;;;;;;;5052427;28;20786;-66
2021/07/30 01:46:03;;;;;;;0.00;0.00;;;;;;;;;;5057942;28;20041;-66
2021/07/30 01:48:28;;;;;;;0.00;0.00;;;;;;;;;;5060442;28;20036;-66
2021/07/30 01:50:54;;;;;;;0.10;0.10;;;;;;;;;;5036458;28;20779;-65
2021/07/30 01:53:19;;;;;;;0.10;0.10;;;;;;;;;;5050431;28;20029;-65
2021/07/30 01:55:46;;;;;;;0.00;0.00;;;;;;;;;;5061792;28;20461;-66
2021/07/30 01:58:12;;;;;;;0.00;0.00;;;;;;;;;;5069476;28;20070;-66
2021/07/30 02:00:37;;;;;;;0.08;0.08;;;;;;;;;;5033171;28;20017;-66
2021/07/30 02:03:02;;;;;;;0.00;0.00;;;;;;;;;;5041273;28;20021;-66
2021/07/30 02:05:30;;;;;;;0.10;0.10;;;;;;;;;;5058115;28;20043;-66
2021/07/30 02:07:55;;;;;;;0.00;0.00;;;;;;;;;;5059516;28;20079;-66
2021/07/30 02:10:20;;;;;;;0.00;0.00;;;;;;;;;;5051641;28;20028;-66
2021/07/30 02:15:30;;;;;;;0.00;0.00;;;;;;;;;;5053145;28;20333;-67
2021/07/30 02:17:55;;;;;;;0.00;0.00;;;;;;;;;;5050545;28;20024;-67
2021/07/30 02:20:20;;;;;;;0.10;0.10;;;;;;;;;;5061792;28;20389;-67
2021/07/30 02:22:45;;;;;;;0.00;0.00;;;;;;;;;;5046389;28;20385;-67
2021/07/30 02:25:10;;;;;;;0.10;0.10;;;;;;;;;;5061930;28;20259;-67
2021/07/30 02:27:36;;;;;;;0.00;0.00;;;;;;;;;;5057924;28;20723;-67
2021/07/30 02:30:02;;;;;;;0.10;0.10;;;;;;;;;;5061369;28;20025;-67
2021/07/30 02:32:27;;;;;;;0.10;0.10;;;;;;;;;;5042546;28;20271;-67
2021/07/30 02:34:52;;;;;;;0.10;0.10;;;;;;;;;;5061528;28;20024;-67
2021/07/30 02:37:17;;;;;;;0.10;0.10;;;;;;;;;;5048911;28;20263;-67
2021/07/30 02:39:43;;;;;;;0.10;0.10;;;;;;;;;;5049034;28;20465;-66
2021/07/30 02:42:08;;;;;;;0.10;0.10;;;;;;;;;;5056267;28;20028;-67
2021/07/30 02:44:33;;;;;;;0.05;0.05;;;;;;;;;;5061942;28;20020;-66
2021/07/30 02:46:59;;;;;;;0.10;0.10;;;;;;;;;;5053455;28;20073;-66
2021/07/30 02:49:24;;;;;;;0.10;0.10;;;;;;;;;;5061829;28;20259;-67
2021/07/30 02:51:49;;;;;;;0.00;0.00;;;;;;;;;;5065362;28;20073;-67
2021/07/30 02:54:14;;;;;;;0.07;0.07;;;;;;;;;;5058453;28;20103;-67
2021/07/30 02:56:39;;;;;;;0.10;0.10;;;;;;;;;;5069069;28;20305;-65
2021/07/30 02:59:05;;;;;;;0.10;0.10;;;;;;;;;;5036047;28;20328;-65
2021/07/30 03:01:30;;;;;;;0.10;0.10;;;;;;;;;;5058388;28;20024;-66
2021/07/30 03:03:56;;;;;;;0.10;0.10;;;;;;;;;;5034149;28;20440;-67
2021/07/30 03:06:21;;;;;;;0.10;0.10;;;;;;;;;;5037941;28;20336;-67
2021/07/30 03:08:46;;;;;;;0.00;0.00;;;;;;;;;;5062308;28;20291;-66
2021/07/30 03:11:11;;;;;;;0.10;0.10;;;;;;;;;;5062444;28;20090;-67
2021/07/30 03:13:36;;;;;;;0.10;0.10;;;;;;;;;;5050322;28;20291;-67
2021/07/30 03:16:03;;;;;;;0.10;0.10;;;;;;;;;;5055976;28;20351;-67
2021/07/30 03:18:28;;;;;;;0.10;0.10;;;;;;;;;;5054988;28;20025;-67
2021/07/30 03:20:54;;;;;;;0.00;0.00;;;;;;;;;;5050311;28;20356;-67
2021/07/30 03:23:19;;;;;;;0.10;0.10;;;;;;;;;;5033844;28;20280;-67
2021/07/30 03:25:44;;;;;;;0.00;0.00;;;;;;;;;;5042114;28;20040;-67
2021/07/30 03:28:09;;;;;;;0.10;0.10;;;;;;;;;;5062701;28;20267;-66
2021/07/30 03:30:35;;;;;;;0.03;0.03;;;;;;;;;;5059215;28;20074;-66
2021/07/30 03:33:00;;;;;;;0.10;0.10;;;;;;;;;;5057939;28;20017;-66
2021/07/30 03:35:25;;;;;;;0.10;0.10;;;;;;;;;;5064516;28;20029;-66
2021/07/30 03:37:50;;;;;;;0.10;0.10;;;;;;;;;;5066404;28;20977;-66
2021/07/30 03:40:16;;;;;;;0.10;0.10;;;;;;;;;;5054094;28;20033;-66
2021/07/30 03:42:41;;;;;;;0.10;0.10;;;;;;;;;;5061372;28;20267;-66
2021/07/30 03:45:07;;;;;;;0.10;0.10;;;;;;;;;;5055269;28;20473;-66
2021/07/30 03:47:32;;;;;;;0.10;0.10;;;;;;;;;;5038885;28;20048;-66
2021/07/30 03:49:57;;;;;;;0.10;0.10;;;;;;;;;;5061340;28;20090;-66
2021/07/30 03:52:22;;;;;;;0.10;0.10;;;;;;;;;;5057619;28;20269;-66
2021/07/30 03:54:48;;;;;;;0.00;0.00;;;;;;;;;;5071383;28;20048;-66
2021/07/30 03:57:13;;;;;;;0.10;0.10;;;;;;;;;;5061894;28;20457;-66
2021/07/30 03:59:38;;;;;;;0.10;0.10;;;;;;;;;;5055322;28;20303;-66
2021/07/30 04:02:03;;;;;;;0.00;0.00;;;;;;;;;;5062859;28;20028;-66
2021/07/30 04:04:28;;;;;;;0.00;0.00;;;;;;;;;;5053074;28;20271;-66
2021/07/30 04:06:54;;;;;;;0.10;0.10;;;;;;;;;;5066151;28;20421;-66
2021/07/30 04:09:21;;;;;;;0.10;0.10;;;;;;;;;;5060628;28;20309;-66
2021/07/30 04:11:46;;;;;;;0.10;0.10;;;;;;;;;;5061532;28;20263;-66
2021/07/30 04:14:12;;;;;;;0.10;0.10;;;;;;;;;;5060139;28;20029;-66
2021/07/30 04:16:38;;;;;;;0.10;0.10;;;;;;;;;;5057760;28;20029;-66
2021/07/30 04:19:03;;;;;;;0.10;0.10;;;;;;;;;;5068142;28;20662;-66
2021/07/30 04:21:29;;;;;;;0.10;0.10;;;;;;;;;;5041542;28;20141;-66
2021/07/30 04:23:54;;;;;;;0.03;0.03;;;;;;;;;;5064021;28;20036;-66
2021/07/30 04:26:19;;;;;;;0.10;0.10;;;;;;;;;;5059443;28;20374;-67
2021/07/30 04:28:45;;;;;;;0.05;0.05;;;;;;;;;;5053332;28;20074;-70
2021/07/30 04:31:10;;;;;;;0.10;0.10;;;;;;;;;;5043513;28;20363;-66
2021/07/30 04:33:35;;;;;;;0.10;0.10;;;;;;;;;;5044039;28;20276;-66
2021/07/30 04:36:00;;;;;;;0.10;0.10;;;;;;;;;;5047910;28;20275;-66
2021/07/30 04:38:26;;;;;;;0.10;0.10;;;;;;;;;;5067623;28;20012;-66
2021/07/30 04:40:51;;;;;;;0.10;0.10;;;;;;;;;;5046020;28;20298;-66
2021/07/30 04:43:16;;;;;;;0.10;0.10;;;;;;;;;;5060022;28;20507;-67
2021/07/30 04:45:42;;;;;;;0.10;0.10;;;;;;;;;;5049216;28;20048;-67
2021/07/30 04:48:07;;;;;;;0.00;0.00;;;;;;;;;;5052759;28;20031;-67
2021/07/30 04:50:32;;;;;;;0.10;0.10;;;;;;;;;;5057496;28;20030;-66
2021/07/30 04:52:57;;;;;;;0.00;0.00;;;;;;;;;;5059644;28;20028;-67
2021/07/30 04:55:23;;;;;;;0.00;0.00;;;;;;;;;;5039641;28;20148;-67
2021/07/30 04:57:48;;;;;;;0.10;0.10;;;;;;;;;;5059593;28;20759;-67
2021/07/30 05:00:13;;;;;;;0.00;0.00;;;;;;;;;;5056812;28;20092;-67
2021/07/30 05:02:39;;;;;;;0.00;0.00;;;;;;;;;;5059875;28;20027;-67
2021/07/30 05:05:04;;;;;;;0.10;0.10;;;;;;;;;;5042010;28;20048;-67
2021/07/30 05:07:29;;;;;;;0.10;0.10;;;;;;;;;;5053063;28;20274;-67
2021/07/30 05:09:54;;;;;;;0.08;0.08;;;;;;;;;;5065740;28;20013;-68
2021/07/30 05:12:20;;;;;;;0.10;0.10;;;;;;;;;;5042080;28;20029;-67
2021/07/30 05:14:48;;;;;;;0.10;0.10;;;;;;;;;;5063862;28;20730;-67
2021/07/30 05:17:13;;;;;;;0.00;0.00;;;;;;;;;;5036218;28;20485;-67
2021/07/30 05:19:39;;;;;;;0.10;0.10;;;;;;;;;;5052212;28;20028;-67
2021/07/30 05:22:04;;;;;;;0.10;0.10;;;;;;;;;;5067358;28;20255;-68
2021/07/30 05:24:29;;;;;;;0.00;0.00;;;;;;;;;;5060276;28;20040;-68
2021/07/30 05:26:54;;;;;;;0.10;0.10;;;;;;;;;;5057675;28;20111;-69
2021/07/30 05:29:23;;;;;;;0.10;0.10;;;;;;;;;;5059094;28;20739;-70
2021/07/30 05:31:48;;;;;;;0.10;0.10;;;;;;;;;;5045513;28;20268;-71
2021/07/30 05:34:13;;;;;;;0.00;0.00;;;;;;;;;;5063834;28;20127;-70
2021/07/30 05:36:42;;;;;;;0.10;0.10;;;;;;;;;;5061409;28;20021;-70
2021/07/30 05:39:07;;;;;;;0.00;0.00;;;;;;;;;;5063275;28;20038;-70
2021/07/30 05:41:32;;;;;;;0.00;0.00;;;;;;;;;;5062748;28;20025;-70
2021/07/30 05:43:57;;;;;;;0.10;0.10;;;;;;;;;;5045998;28;20259;-71
2021/07/30 05:46:22;;;;;;;0.10;0.10;;;;;;;;;;5062230;28;20368;-72
2021/07/30 05:48:49;;;;;;;0.10;0.10;;;;;;;;;;5062920;28;20263;-70
2021/07/30 05:51:14;;;;;;;0.10;0.10;;;;;;;;;;5046743;28;20020;-71
2021/07/30 05:53:40;;;;;;;0.00;0.00;;;;;;;;;;5044377;28;20021;-72
2021/07/30 05:56:05;;;;;;;0.10;0.10;;;;;;;;;;5060994;28;20031;-72
2021/07/30 05:58:30;;;;;;;0.00;0.00;;;;;;;;;;5045339;28;20023;-72
2021/07/30 06:00:56;;;;;;;0.00;0.00;;;;;;;;;;5062916;28;20025;-72
2021/07/30 06:03:21;;;;;;;0.03;0.03;;;;;;;;;;5062268;28;20020;-72
2021/07/30 06:05:46;;;;;;;0.00;0.00;;;;;;;;;;5062166;28;20027;-72
2021/07/30 06:08:13;;;;;;;0.00;0.00;;;;;;;;;;5060966;28;20035;-72
2021/07/30 06:10:38;;;;;;;0.00;0.00;;;;;;;;;;5063567;28;21098;-72
2021/07/30 06:13:03;;;;;;;0.10;0.10;;;;;;;;;;5061775;28;20091;-72
2021/07/30 06:15:28;;;;;;;0.00;0.00;;;;;;;;;;5063627;28;20111;-70
2021/07/30 06:17:53;;;;;;;0.10;0.10;;;;;;;;;;5064511;28;20016;-71
2021/07/30 06:20:19;;;;;;;0.10;0.10;;;;;;;;;;5062670;28;20667;-73
2021/07/30 06:22:44;;;;;;;0.10;0.10;;;;;;;;;;5061413;28;20443;-71
2021/07/30 06:25:10;;;;;;;0.00;0.00;;;;;;;;;;5061422;28;20389;-70
2021/07/30 06:27:35;;;;;;;0.00;0.00;;;;;;;;;;5045241;28;20273;-71
2021/07/30 06:30:01;;;;;;;0.00;0.00;;;;;;;;;;5062380;28;20013;-72
2021/07/30 06:32:26;;;;;;;0.00;0.00;;;;;;;;;;5064353;28;20258;-72
2021/07/30 06:34:51;;;;;;;0.00;0.00;;;;;;;;;;5044666;28;20107;-71
2021/07/30 06:37:17;;;;;;;0.10;0.10;;;;;;;;;;5045777;28;20337;-70
2021/07/30 06:39:42;;;;;;;0.00;0.00;;;;;;;;;;5046118;28;20020;-71
2021/07/30 06:42:07;;;;;;;0.00;0.00;;;;;;;;;;5045187;28;20255;-71
2021/07/30 06:44:32;;;;;;;0.00;0.00;;;;;;;;;;5044094;28;20280;-71
2021/07/30 06:46:57;;;;;;;0.00;0.00;;;;;;;;;;5044466;28;20045;-70
2021/07/30 06:49:22;;;;;;;0.00;0.00;;;;;;;;;;5063416;28;20612;-70
2021/07/30 06:51:48;;;;;;;0.00;0.00;;;;;;;;;;5058709;28;20374;-70
2021/07/30 06:54:13;;;;;;;0.00;0.00;;;;;;;;;;5061434;28;20483;-69
2021/07/30 06:56:38;;;;;;;0.00;0.00;;;;;;;;;;5047366;28;20365;-69
2021/07/30 06:59:03;;;;;;;0.03;0.03;;;;;;;;;;5059046;28;20267;-70
2021/07/30 07:01:28;;;;;;;0.00;0.00;;;;;;;;;;5060570;28;20259;-71
2021/07/30 07:03:54;;;;;;;0.00;0.00;;;;;;;;;;5060610;28;20062;-70
2021/07/30 07:06:19;;;;;;;0.00;0.00;;;;;;;;;;5065983;28;20608;-70
2021/07/30 07:08:44;;;;;;;0.00;0.00;;;;;;;;;;5042387;28;20099;-71
2021/07/30 07:11:09;;;;;;;0.00;0.00;;;;;;;;;;5062660;28;20262;-72
2021/07/30 07:13:35;;;;;;;0.00;0.00;;;;;;;;;;5047106;28;20028;-71
2021/07/30 07:16:00;;;;;;;0.00;0.00;;;;;;;;;;5061429;28;20499;-70
2021/07/30 07:18:25;;;;;;;0.00;0.00;;;;;;;;;;5059592;28;20111;-70
2021/07/30 07:20:54;;;;;;;0.00;0.00;;;;;;;;;;5062167;28;20251;-71
2021/07/30 07:23:20;;;;;;;0.00;0.00;;;;;;;;;;5066151;28;20268;-70
2021/07/30 07:25:45;;;;;;;0.00;0.00;;;;;;;;;;5062449;28;20469;-72
2021/07/30 07:28:10;;;;;;;0.00;0.00;;;;;;;;;;5063504;28;20271;-72
2021/07/30 07:30:35;;;;;;;0.00;0.00;;;;;;;;;;5058938;28;20279;-72
2021/07/30 07:33:01;;;;;;;0.00;0.00;;;;;;;;;;5058616;28;20267;-73
2021/07/30 07:35:29;;;;;;;0.00;0.00;;;;;;;;;;5046731;28;20060;-73
2021/07/30 07:38:00;;;;;;;0.00;0.00;;;;;;;;;;5059934;28;20075;-72
2021/07/30 07:40:25;;;;;;;0.00;0.00;;;;;;;;;;5057147;28;20024;-73
2021/07/30 07:42:50;;;;;;;0.00;0.00;;;;;;;;;;5058566;28;20028;-72
2021/07/30 07:45:15;;;;;;;0.00;0.00;;;;;;;;;;5062108;28;20429;-73
2021/07/30 07:47:40;;;;;;;0.00;0.00;;;;;;;;;;5061164;28;20290;-73
2021/07/30 07:50:06;;;;;;;0.00;0.00;;;;;;;;;;5060781;28;20609;-72
2021/07/30 07:52:33;;;;;;;0.00;0.00;;;;;;;;;;5042881;28;20448;-72
2021/07/30 07:54:58;;;;;;;0.00;0.00;;;;;;;;;;5061342;28;20091;-72
2021/07/30 07:57:25;;;;;;;0.00;0.00;;;;;;;;;;5058737;28;20123;-70
2021/07/30 07:59:50;;;;;;;0.00;0.00;;;;;;;;;;5060251;28;20113;-71
2021/07/30 08:02:15;;;;;;;0.00;0.00;;;;;;;;;;5044269;28;20084;-72
2021/07/30 08:04:41;;;;;;;0.00;0.00;;;;;;;;;;5061474;28;20508;-72
2021/07/30 08:07:10;;;;;;;0.00;0.00;;;;;;;;;;5061460;28;20259;-72
2021/07/30 08:09:35;;;;;;;0.10;0.10;;;;;;;;;;5058742;28;20581;-72
2021/07/30 08:12:00;;;;;;;0.00;0.00;;;;;;;;;;5061039;28;20024;-71
2021/07/30 08:14:25;;;;;;;0.00;0.00;;;;;;;;;;5060181;28;20023;-71
2021/07/30 08:16:54;;;;;;;0.00;0.00;;;;;;;;;;5063425;28;20017;-69
2021/07/30 08:19:19;;;;;;;0.00;0.00;;;;;;;;;;5063547;28;20274;-72
2021/07/30 08:21:45;;;;;;;0.00;0.00;;;;;;;;;;5066264;28;20013;-71
2021/07/30 08:24:10;;;;;;;0.00;0.00;;;;;;;;;;5050458;28;20031;-71
2021/07/30 08:26:36;;;;;;;0.00;0.00;;;;;;;;;;5047025;28;20475;-72
2021/07/30 08:29:01;;;;;;;0.00;0.00;;;;;;;;;;5065654;28;20081;-70
2021/07/30 08:31:26;;;;;;;0.00;0.00;;;;;;;;;;5064085;28;20692;-70
2021/07/30 08:33:51;;;;;;;0.00;0.00;;;;;;;;;;5044573;28;20032;-69
2021/07/30 08:36:17;;;;;;;0.00;0.00;;;;;;;;;;5045190;28;20367;-72
2021/07/30 08:38:42;;;;;;;0.00;0.00;;;;;;;;;;5066000;28;20535;-71
2021/07/30 08:41:08;;;;;;;0.00;0.00;;;;;;;;;;5067193;28;20017;-65
2021/07/30 08:43:33;;;;;;;0.00;0.00;;;;;;;;;;5045994;28;20278;-69
2021/07/30 08:45:58;;;;;;;0.00;0.00;;;;;;;;;;5064797;28;20115;-69
2021/07/30 08:48:28;;;;;;;0.00;0.00;;;;;;;;;;5064183;28;20325;-67
2021/07/30 08:50:54;;;;;;;0.00;0.00;;;;;;;;;;5044675;28;20021;-65
2021/07/30 08:53:26;;;;;;;0.00;0.00;;;;;;;;;;5049112;28;20040;-67
2021/07/30 08:55:51;;;;;;;0.00;0.00;;;;;;;;;;5062591;28;20036;-66
2021/07/30 08:58:16;;;;;;;0.00;0.00;;;;;;;;;;5046978;28;20085;-68
2021/07/30 09:00:42;;;;;;;0.00;0.00;;;;;;;;;;5069183;28;20028;-68
2021/07/30 09:03:07;;;;;;;0.00;0.00;;;;;;;;;;5043972;28;20660;-68
2021/07/30 09:05:33;;;;;;;0.00;0.00;;;;;;;;;;5061998;28;20024;-68
2021/07/30 09:07:59;;;;;;;0.00;0.00;;;;;;;;;;5048390;28;20385;-69
2021/07/30 09:10:27;;;;;;;0.00;0.00;;;;;;;;;;5063276;28;20032;-68
2021/07/30 09:13:09;;;;;;;0.00;0.00;;;;;;;;;;5063295;28;20053;-68
2021/07/30 09:15:34;;;;;;;0.00;0.00;;;;;;;;;;5061432;28;20492;-68
2021/07/30 09:17:59;;;;;;;0.00;0.00;;;;;;;;;;5063101;28;20021;-69
2021/07/30 09:20:24;;;;;;;0.00;0.00;;;;;;;;;;5061826;28;20125;-68
2021/07/30 09:22:50;;;;;;;0.00;0.00;;;;;;;;;;5059405;28;20024;-68
2021/07/30 09:25:33;;;;;;;0.00;0.00;;;;;;;;;;5047420;28;20270;-68
2021/07/30 09:28:03;;;;;;;0.00;0.00;;;;;;;;;;5063906;28;20093;-68
2021/07/30 09:30:28;;;;;;;0.00;0.00;;;;;;;;;;5057654;28;20489;-68
2021/07/30 09:32:53;;;;;;;0.00;0.00;;;;;;;;;;5063029;28;20013;-68
2021/07/30 09:35:25;;;;;;;0.00;0.00;;;;;;;;;;5060619;28;20289;-75
2021/07/30 09:38:12;;;;;;;0.00;0.00;;;;;;;;;;5063559;28;20755;-74
2021/07/30 09:41:15;;;;;;;0.00;0.00;;;;;;;;;;5063192;28;20539;-74
2021/07/30 09:43:55;;;;;;;0.00;0.00;;;;;;;;;;5063270;28;20024;-74
2021/07/30 09:46:23;;;;;;;0.00;0.00;;;;;;;;;;5062046;28;20485;-74
2021/07/30 09:48:57;;;;;;;0.00;0.00;;;;;;;;;;5059039;28;20106;-74
2021/07/30 09:51:23;;;;;;;0.00;0.00;;;;;;;;;;5056363;28;20298;-74
2021/07/30 09:53:55;;;;;;;0.00;0.00;;;;;;;;;;5062319;28;20758;-74
2021/07/30 09:56:31;;;;;;;0.00;0.00;;;;;;;;;;5061431;28;20469;-74
2021/07/30 09:59:08;;;;;;;0.00;0.00;;;;;;;;;;5043214;28;20078;-73
2021/07/30 10:01:40;;;;;;;0.00;0.00;;;;;;;;;;5060310;28;20017;-75
2021/07/30 10:04:11;;;;;;;0.00;0.00;;;;;;;;;;5059901;28;20021;-75
2021/07/30 10:06:52;;;;;;;0.00;0.00;;;;;;;;;;5045886;28;20485;-74
2021/07/30 10:09:25;;;;;;;0.00;0.00;;;;;;;;;;5061881;28;20032;-74
2021/07/30 10:11:59;;;;;;;0.00;0.00;;;;;;;;;;5061530;28;20495;-74
2021/07/30 10:14:54;;;;;;;0.00;0.00;;;;;;;;;;5062521;28;20385;-74
2021/07/30 10:20:36;;;;;;;0.00;0.00;;;;;;;;;;5059965;28;20108;-74
2021/07/30 10:23:09;;;;;;;0.00;0.00;;;;;;;;;;5061987;28;20021;-74
2021/07/30 10:25:53;;;;;;;0.00;0.00;;;;;;;;;;5060768;28;20504;-72
2021/07/30 10:28:24;;;;;;;0.00;0.00;;;;;;;;;;5044781;28;20056;-73
2021/07/30 10:31:13;;;;;;;0.00;0.00;;;;;;;;;;5042864;28;20024;-74
2021/07/30 10:33:49;;;;;;;0.00;0.00;;;;;;;;;;5062755;28;20074;-73
2021/07/30 10:36:37;;;;;;;0.00;0.00;;;;;;;;;;5060678;28;20012;-75
2021/07/30 10:39:11;;;;;;;0.00;0.00;;;;;;;;;;5055317;28;20507;-75
2021/07/30 10:42:10;;;;;;;0.00;0.00;;;;;;;;;;5041619;28;20021;-75
2021/07/30 10:45:00;;;;;;;0.00;0.00;;;;;;;;;;5053666;28;20048;-74
2021/07/30 10:47:30;;;;;;;0.00;0.00;;;;;;;;;;5056836;28;20505;-73
2021/07/30 10:49:56;;;;;;;0.00;0.00;;;;;;;;;;5058055;28;20059;-73
2021/07/30 10:52:41;;;;;;;0.00;0.00;;;;;;;;;;5044693;28;20033;-74
2021/07/30 10:55:33;;;;;;;0.00;0.00;;;;;;;;;;5054794;28;20525;-74
2021/07/30 10:58:19;;;;;;;0.00;0.00;;;;;;;;;;5058502;28;20024;-74
2021/07/30 11:00:58;;;;;;;0.00;0.00;;;;;;;;;;5059160;28;20020;-74
2021/07/30 11:03:26;;;;;;;0.00;0.00;;;;;;;;;;5044805;28;20017;-74
2021/07/30 11:06:16;;;;;;;0.00;0.00;;;;;;;;;;5041147;28;20035;-73
2021/07/30 11:09:05;;;;;;;0.00;0.00;;;;;;;;;;5060330;28;20118;-73
2021/07/30 11:11:52;;;;;;;0.00;0.00;;;;;;;;;;5060488;28;20489;-74
2021/07/30 11:14:21;;;;;;;0.00;0.00;;;;;;;;;;5056839;28;20554;-74
2021/07/30 11:17:25;;;;;;;0.00;0.00;;;;;;;;;;5058170;28;20496;-74
2021/07/30 11:20:08;;;;;;;0.00;0.00;;;;;;;;;;5031413;28;20482;-74
2021/07/30 11:22:39;;;;;;;0.00;0.00;;;;;;;;;;5058197;28;21038;-74
2021/07/30 11:25:15;;;;;;;0.00;0.00;;;;;;;;;;5056515;28;20044;-73
2021/07/30 11:27:42;;;;;;;0.00;0.00;;;;;;;;;;5058595;28;20020;-73
2021/07/30 11:30:10;;;;;;;0.00;0.00;;;;;;;;;;5043860;28;20019;-72
2021/07/30 11:32:35;;;;;;;0.00;0.00;;;;;;;;;;5040654;28;20135;-68
2021/07/30 11:35:08;;;;;;;0.00;0.00;;;;;;;;;;5052320;28;20148;-67
2021/07/30 11:37:33;;;;;;;0.00;0.00;;;;;;;;;;5056371;28;20116;-67
2021/07/30 11:40:00;;;;;;;0.00;0.00;;;;;;;;;;5052916;28;20525;-67
2021/07/30 11:42:30;;;;;;;0.00;0.00;;;;;;;;;;5060426;28;20420;-67
2021/07/30 11:44:56;;;;;;;0.00;0.00;;;;;;;;;;5041029;28;20147;-68
2021/07/30 11:47:22;;;;;;;0.00;0.00;;;;;;;;;;5056733;28;20045;-67
2021/07/30 11:49:48;;;;;;;0.00;0.00;;;;;;;;;;5040467;28;20024;-68
2021/07/30 11:52:20;;;;;;;0.00;0.00;;;;;;;;;;5060705;28;20420;-67
2021/07/30 11:54:45;;;;;;;0.00;0.00;;;;;;;;;;5063742;28;20025;-67
2021/07/30 11:57:10;;;;;;;0.00;0.00;;;;;;;;;;5050114;28;20024;-68
2021/07/30 11:59:46;;;;;;;0.00;0.00;;;;;;;;;;5064467;28;20054;-68
2021/07/30 12:02:11;;;;;;;0.00;0.00;;;;;;;;;;5062594;28;20099;-69
2021/07/30 12:04:36;;;;;;;0.00;0.00;;;;;;;;;;5058873;28;20441;-69
2021/07/30 12:07:05;;;;;;;0.00;0.00;;;;;;;;;;5062377;28;20389;-68
2021/07/30 12:09:30;;;;;;;0.00;0.00;;;;;;;;;;5067941;28;20039;-68
2021/07/30 12:11:55;;;;;;;0.00;0.00;;;;;;;;;;5058209;28;20028;-67
2021/07/30 12:14:21;;;;;;;0.00;0.00;;;;;;;;;;5042584;28;20271;-68
2021/07/30 12:16:46;;;;;;;0.00;0.00;;;;;;;;;;5068344;28;20043;-67
2021/07/30 12:19:11;;;;;;;0.00;0.00;;;;;;;;;;5042688;28;20020;-67
2021/07/30 12:21:53;;;;;;;0.00;0.00;;;;;;;;;;5046938;28;20024;-68
2021/07/30 12:24:18;;;;;;;0.00;0.00;;;;;;;;;;5041301;28;20052;-68
2021/07/30 12:26:43;;;;;;;0.00;0.00;;;;;;;;;;5063854;28;20076;-67
2021/07/30 12:29:08;;;;;;;0.00;0.00;;;;;;;;;;5042902;28;20028;-68
2021/07/30 12:31:34;;;;;;;0.00;0.00;;;;;;;;;;5060116;28;20106;-67
2021/07/30 12:34:14;;;;;;;0.00;0.00;;;;;;;;;;5045916;28;20940;-68
2021/07/30 12:36:40;;;;;;;0.00;0.00;;;;;;;;;;5062263;28;20029;-68
2021/07/30 12:39:06;;;;;;;0.00;0.00;;;;;;;;;;5065265;28;20028;-68
2021/07/30 12:41:33;;;;;;;0.00;0.00;;;;;;;;;;5057108;28;20020;-68
2021/07/30 12:44:08;;;;;;;0.00;0.00;;;;;;;;;;5062103;28;20032;-68
2021/07/30 12:46:47;;;;;;;0.00;0.00;;;;;;;;;;5044698;28;20123;-67
2021/07/30 12:49:13;;;;;;;0.00;0.00;;;;;;;;;;5064384;28;20052;-69
2021/07/30 12:51:39;;;;;;;0.00;0.00;;;;;;;;;;5061952;28;20112;-68
2021/07/30 12:54:05;;;;;;;0.00;0.00;;;;;;;;;;5062935;28;20028;-67
2021/07/30 12:56:49;;;;;;;0.00;0.00;;;;;;;;;;5059725;28;20086;-67
2021/07/30 12:59:14;;;;;;;0.00;0.00;;;;;;;;;;5054792;28;20013;-67
2021/07/30 13:01:39;;;;;;;0.00;0.00;;;;;;;;;;5038883;28;20028;-68
2021/07/30 13:04:08;;;;;;;0.00;0.00;;;;;;;;;;5059212;28;20016;-68
2021/07/30 13:06:34;;;;;;;0.00;0.00;;;;;;;;;;5055896;28;20739;-68
2021/07/30 13:08:59;;;;;;;0.10;0.00;;;;;;;;;;5061993;28;20073;-68
2021/07/30 13:11:24;;;;;;;0.00;0.00;;;;;;;;;;5046714;28;20115;-67
2021/07/30 13:13:49;;;;;;;0.00;0.00;;;;;;;;;;5063169;28;20021;-68
2021/07/30 13:16:15;;;;;;;0.00;0.00;;;;;;;;;;5055025;28;20021;-67
2021/07/30 13:18:40;;;;;;;0.00;0.00;;;;;;;;;;5038799;28;20044;-67
2021/07/30 13:21:05;;;;;;;0.00;0.00;;;;;;;;;;5039946;28;20025;-67
2021/07/30 13:23:30;;;;;;;0.00;0.00;;;;;;;;;;5041927;28;20272;-67
2021/07/30 13:25:56;;;;;;;0.00;0.00;;;;;;;;;;5067330;28;20389;-68
2021/07/30 13:28:21;;;;;;;0.00;0.00;;;;;;;;;;5060494;28;20104;-75
2021/07/30 13:30:50;;;;;;;0.00;0.00;;;;;;;;;;5062136;28;20015;-75
2021/07/30 13:33:15;;;;;;;0.00;0.00;;;;;;;;;;5061268;28;20370;-76
2021/07/30 13:35:41;;;;;;;0.00;0.00;;;;;;;;;;5044769;28;20031;-75
2021/07/30 13:38:07;;;;;;;0.00;0.00;;;;;;;;;;5061049;28;20291;-76
2021/07/30 13:40:32;;;;;;;0.00;0.00;;;;;;;;;;5045820;28;20289;-76
2021/07/30 13:43:02;;;;;;;0.00;0.00;;;;;;;;;;5062134;28;20466;-76
2021/07/30 13:45:29;;;;;;;0.00;0.00;;;;;;;;;;5060986;28;20024;-76
2021/07/30 13:47:54;;;;;;;0.00;0.00;;;;;;;;;;5044159;28;20382;-76
2021/07/30 13:50:20;;;;;;;0.00;0.00;;;;;;;;;;5058458;28;20086;-76
2021/07/30 13:52:45;;;;;;;0.00;0.00;;;;;;;;;;5042676;28;20039;-76
2021/07/30 13:55:11;;;;;;;0.00;0.00;;;;;;;;;;5061195;28;20035;-76
2021/07/30 13:57:36;;;;;;;0.00;0.00;;;;;;;;;;5063774;28;20389;-75
2021/07/30 14:00:04;;;;;;;0.00;0.00;;;;;;;;;;5059993;28;20258;-75
2021/07/30 14:02:29;;;;;;;0.00;0.00;;;;;;;;;;5059879;28;20270;-76
2021/07/30 14:04:54;;;;;;;0.00;0.00;;;;;;;;;;5059906;28;20016;-75
2021/07/30 14:07:19;;;;;;;0.00;0.00;;;;;;;;;;5043745;28;20331;-75
2021/07/30 14:09:44;;;;;;;0.00;0.00;;;;;;;;;;5061761;28;20773;-76
2021/07/30 14:12:10;;;;;;;0.00;0.00;;;;;;;;;;5060615;28;20028;-75
2021/07/30 14:14:39;;;;;;;0.00;0.00;;;;;;;;;;5043696;28;20025;-76
2021/07/30 14:17:04;;;;;;;0.00;0.00;;;;;;;;;;5044927;28;20473;-75
2021/07/30 14:19:32;;;;;;;0.00;0.00;;;;;;;;;;5062089;28;20095;-76
2021/07/30 14:21:57;;;;;;;0.00;0.00;;;;;;;;;;5059837;28;20079;-76
2021/07/30 14:24:22;;;;;;;0.00;0.00;;;;;;;;;;5061319;28;20469;-76
2021/07/30 14:26:48;;;;;;;0.00;0.00;;;;;;;;;;5063637;28;20108;-75
2021/07/30 14:29:13;;;;;;;0.00;0.00;;;;;;;;;;5061926;28;20468;-75
2021/07/30 14:31:38;;;;;;;0.00;0.00;;;;;;;;;;5064157;28;20029;-75
2021/07/30 14:34:04;;;;;;;0.00;0.00;;;;;;;;;;5061187;28;20021;-75
2021/07/30 14:36:31;;;;;;;0.00;0.00;;;;;;;;;;5058299;28;20016;-75
2021/07/30 14:38:57;;;;;;;0.00;0.00;;;;;;;;;;5060112;28;20039;-75
2021/07/30 14:41:22;;;;;;;0.00;0.00;;;;;;;;;;5059134;28;20036;-75
2021/07/30 14:43:48;;;;;;;0.00;0.00;;;;;;;;;;5044630;28;20020;-75
2021/07/30 14:46:13;;;;;;;0.00;0.00;;;;;;;;;;5060982;28;20283;-75
2021/07/30 14:48:38;;;;;;;0.00;0.00;;;;;;;;;;5060691;28;20025;-75
2021/07/30 14:51:04;;;;;;;0.03;0.00;;;;;;;;;;5059472;28;20103;-75